Sainte-Julienne, Canada
Current Conditions -  °F | °C
As of 9:00 PM on Thursday 20 Nov 2014 (Local Time) from CYMX Reporting Station
Few Clouds Few Clouds  
Wind Chill: 15°   Ceiling: Unl
Heat Index: 25°   Visibility: 25mi
Dew Point:   Wind: 10mph
Humidity: 50%   Direction: 240°WSW
Pressure: 29.75"   Gusts: 22mph
Location:  45.97°N, 73.72°W
Report Text: CYMX 210200Z 24009G19KT 25SM FEW050 FEW120 M04/M13 A2975 RMK SC1AC1 SLP078
Loading
Personal Weather Stations






























Interactive Weather Map New forecast layout! Learn more

10-Day Weather Forecast

Advertisements
Track Severe Weather on mobile